Terminal Aerodrome Forecast
Issued by NWS Knoxville/Tri Cities, TN

Home | Current Version | Previous Version | Text Only | Print | Product List | Glossary On
Versions: 1 2 3 4 5 6 7 8 9 10 11 12 13 14 15 16 17 18 19 20 21 22 23 24 25 26 27 28 29 30 31 32 33 34 35 36 37 38 39 40 41 42 43 44 45 46 47 48
000
FTUS44 KMRX 030622 AAA
TAFTRI
TAF AMD
KTRI 030622Z 0306/0406 VRB03KT P6SM VCSH SCT030 OVC070
      TEMPO 0306/0309 5SM -SHRA BR BKN025
     FM030900 23003KT 5SM -SHRA BR SCT010 BKN030 OVC050
     FM031500 24007KT P6SM VCTS SCT015CB BKN035
     FM031900 24012G25KT 3SM TSRA BR SCT010 OVC025CB
     FM032200 23012G22KT P6SM VCTS BKN025CB OVC040
     FM040300 25008KT 5SM -SHRA BR BKN015 OVC035=

USA.gov is the U.S. government's official web portal to all federal, state and local government web resources and services.